createdAt,value
2023-01-05T00:02:06.848Z,8.10
2023-01-05T00:04:38.434Z,8.00
2023-01-05T00:07:10.182Z,8.60
2023-01-05T00:12:29.614Z,8.40
2023-01-05T00:15:18.703Z,8.00
2023-01-05T00:18:07.752Z,8.90
2023-01-05T00:20:57.031Z,8.60
2023-01-05T00:23:28.429Z,8.00
2023-01-05T00:26:00.214Z,6.90
2023-01-05T00:28:31.930Z,7.50
2023-01-05T00:31:03.479Z,6.90
2023-01-05T00:36:04.896Z,7.20
2023-01-05T00:41:06.325Z,7.30
2023-01-05T00:43:37.751Z,8.80
2023-01-05T00:46:09.526Z,7.90
2023-01-05T00:48:41.033Z,6.60
2023-01-05T00:51:12.617Z,7.70
2023-01-05T00:56:14.146Z,6.00
2023-01-05T00:58:45.819Z,6.60
2023-01-05T01:01:17.351Z,6.50
2023-01-05T01:03:49.163Z,6.70
2023-01-05T01:06:20.687Z,6.00
2023-01-05T01:08:52.221Z,6.70
2023-01-05T01:11:23.703Z,7.20
2023-01-05T01:13:55.690Z,6.70
2023-01-05T01:16:28.888Z,7.10
2023-01-05T01:19:05.135Z,8.20
2023-01-05T01:21:37.287Z,6.70
2023-01-05T01:26:39.019Z,6.70
2023-01-05T01:29:10.615Z,7.00
2023-01-05T01:31:42.202Z,6.50
2023-01-05T01:36:44.727Z,6.30
2023-01-05T01:39:17.445Z,6.80
2023-01-05T01:41:52.080Z,6.60
2023-01-05T01:47:23.565Z,6.60
2023-01-05T01:49:55.074Z,6.40
2023-01-05T01:54:56.414Z,7.20
2023-01-05T01:57:28.855Z,7.90
2023-01-05T02:00:01.079Z,7.20
2023-01-05T02:02:33.465Z,7.10
2023-01-05T02:05:08.100Z,6.10
2023-01-05T02:07:41.349Z,6.80
2023-01-05T02:10:13.314Z,7.60
2023-01-05T02:12:54.192Z,7.50
2023-01-05T02:15:30.140Z,7.50
2023-01-05T02:18:10.637Z,6.90
2023-01-05T02:21:17.131Z,8.10
2023-01-05T02:24:21.463Z,7.10
2023-01-05T02:27:28.785Z,7.30
2023-01-05T02:30:40.495Z,7.20
2023-01-05T02:33:16.183Z,7.40
2023-01-05T02:35:51.671Z,6.90
2023-01-05T02:38:25.086Z,8.30
2023-01-05T02:41:01.768Z,8.20
2023-01-05T02:43:33.316Z,8.40
2023-01-05T02:46:04.962Z,8.70
2023-01-05T02:51:07.377Z,9.40
2023-01-05T02:53:41.177Z,8.50
2023-01-05T02:56:15.077Z,9.20
2023-01-05T02:58:48.574Z,10.70
2023-01-05T03:01:21.407Z,9.80
2023-01-05T03:03:54.329Z,11.10
2023-01-05T03:06:27.449Z,9.20
2023-01-05T03:09:01.162Z,10.50
2023-01-05T03:11:54.155Z,10.00
2023-01-05T03:14:29.114Z,9.00
2023-01-05T03:17:00.662Z,8.20
2023-01-05T03:19:40.163Z,8.10
2023-01-05T03:22:34.284Z,8.70
2023-01-05T03:25:26.048Z,8.50
2023-01-05T03:28:15.683Z,8.70
2023-01-05T03:31:09.080Z,8.10
2023-01-05T03:34:00.244Z,7.60
2023-01-05T03:36:32.252Z,8.20
2023-01-05T03:41:35.068Z,8.30
2023-01-05T03:46:39.465Z,7.80
2023-01-05T03:49:11.547Z,7.30
2023-01-05T03:51:43.124Z,8.10
2023-01-05T03:54:14.945Z,7.50
2023-01-05T03:56:48.343Z,7.20
2023-01-05T03:59:20.182Z,6.80
2023-01-05T04:01:53.723Z,6.50
2023-01-05T04:04:25.576Z,6.70
2023-01-05T04:06:57.833Z,6.70
2023-01-05T04:11:59.274Z,8.10
2023-01-05T04:17:01.242Z,7.30
2023-01-05T04:19:32.738Z,6.70
2023-01-05T04:22:05.834Z,6.90
2023-01-05T04:24:38.086Z,7.40
2023-01-05T04:27:09.915Z,6.40
2023-01-05T04:29:43.343Z,5.70
2023-01-05T04:32:16.491Z,5.70
2023-01-05T04:34:48.241Z,6.70
2023-01-05T04:37:20.537Z,5.30
2023-01-05T04:39:52.158Z,6.20
2023-01-05T04:44:57.519Z,6.20
2023-01-05T04:50:00.010Z,5.70
2023-01-05T04:52:31.904Z,6.00
2023-01-05T04:55:03.667Z,5.80
2023-01-05T05:00:06.154Z,6.30
2023-01-05T05:02:38.175Z,6.90
2023-01-05T05:05:11.255Z,6.40
2023-01-05T05:07:43.258Z,6.70
2023-01-05T05:10:18.250Z,6.20
2023-01-05T05:12:50.180Z,7.20
2023-01-05T05:15:22.686Z,6.90
2023-01-05T05:20:24.077Z,6.10
2023-01-05T05:22:55.579Z,6.80
2023-01-05T05:25:27.791Z,6.50
2023-01-05T05:27:59.990Z,5.90
2023-01-05T05:33:01.146Z,7.30
2023-01-05T05:35:32.756Z,6.30
2023-01-05T05:40:33.833Z,6.60
2023-01-05T05:43:05.365Z,6.30
2023-01-05T05:45:36.887Z,5.80
2023-01-05T05:48:08.563Z,6.50
2023-01-05T05:50:40.040Z,5.30
2023-01-05T05:53:11.474Z,7.50
2023-01-05T05:55:43.210Z,6.70
2023-01-05T05:58:14.617Z,6.40
2023-01-05T06:00:46.463Z,6.70
2023-01-05T06:03:17.925Z,6.70
2023-01-05T06:05:50.283Z,6.70
2023-01-05T06:08:22.239Z,7.40
2023-01-05T06:10:53.802Z,5.90
2023-01-05T06:15:55.475Z,7.00
2023-01-05T06:18:28.485Z,6.90
2023-01-05T06:21:01.979Z,6.80
2023-01-05T06:23:34.109Z,8.00
2023-01-05T06:26:06.048Z,7.80
2023-01-05T06:28:37.437Z,7.50
2023-01-05T06:31:09.598Z,6.90
2023-01-05T06:33:41.474Z,8.00
2023-01-05T06:36:13.156Z,7.70
2023-01-05T06:38:45.317Z,7.20
2023-01-05T06:41:16.955Z,8.50
2023-01-05T06:46:18.452Z,7.10
2023-01-05T06:51:20.192Z,6.80
2023-01-05T06:53:52.078Z,8.70
2023-01-05T06:56:23.527Z,8.30
2023-01-05T06:58:54.935Z,8.20
2023-01-05T07:01:26.833Z,8.90
2023-01-05T07:03:58.741Z,7.70
2023-01-05T07:09:00.046Z,9.60
2023-01-05T07:11:31.756Z,8.20
2023-01-05T07:16:33.172Z,7.90
2023-01-05T07:21:34.829Z,8.20
2023-01-05T07:26:36.840Z,8.50
2023-01-05T07:29:08.603Z,7.80
2023-01-05T07:31:40.334Z,8.60
2023-01-05T07:34:12.182Z,8.00
2023-01-05T07:36:45.155Z,9.30
2023-01-05T07:39:17.562Z,8.10
2023-01-05T07:41:49.209Z,8.20
2023-01-05T07:44:21.220Z,8.50
2023-01-05T07:46:53.789Z,7.90
2023-01-05T07:49:25.580Z,9.30
2023-01-05T07:51:57.047Z,8.80
2023-01-05T07:56:59.484Z,9.40
2023-01-05T07:59:31.386Z,8.20
2023-01-05T08:04:34.317Z,8.70
2023-01-05T08:07:10.098Z,8.10
2023-01-05T08:09:59.225Z,9.80
2023-01-05T08:12:31.207Z,10.00
2023-01-05T08:15:03.066Z,8.80
2023-01-05T08:17:34.494Z,10.20
2023-01-05T08:20:09.397Z,9.50
2023-01-05T08:22:41.066Z,9.90
2023-01-05T08:25:13.057Z,8.50
2023-01-05T08:27:44.833Z,9.70
2023-01-05T08:30:17.103Z,8.50
2023-01-05T08:32:48.841Z,9.90
2023-01-05T08:35:20.461Z,9.80
2023-01-05T08:37:52.058Z,9.10
2023-01-05T08:40:25.738Z,9.40
2023-01-05T08:42:58.445Z,8.70
2023-01-05T08:45:30.151Z,8.20
2023-01-05T08:48:01.606Z,9.10
2023-01-05T08:50:33.550Z,8.50
2023-01-05T08:53:05.285Z,7.80
2023-01-05T08:55:37.128Z,8.80
2023-01-05T09:00:39.375Z,10.10
2023-01-05T09:05:41.672Z,7.70
2023-01-05T09:08:13.438Z,7.80
2023-01-05T09:13:14.933Z,6.90
2023-01-05T09:15:46.693Z,7.30
2023-01-05T09:18:18.198Z,8.10
2023-01-05T09:20:49.933Z,8.40
2023-01-05T09:23:21.805Z,8.10
2023-01-05T09:25:53.522Z,8.40
2023-01-05T09:30:56.410Z,7.20
2023-01-05T09:33:28.334Z,8.20
2023-01-05T09:36:00.030Z,7.20
2023-01-05T09:38:31.824Z,7.70
2023-01-05T09:43:35.653Z,7.30
2023-01-05T09:46:07.757Z,6.80
2023-01-05T09:48:42.671Z,7.70
2023-01-05T09:51:14.397Z,8.10
2023-01-05T09:53:46.407Z,7.70
2023-01-05T09:56:58.937Z,7.60
2023-01-05T09:59:19.796Z,6.40
2023-01-05T10:01:51.615Z,8.10
2023-01-05T10:07:03.138Z,8.00
2023-01-05T10:09:36.665Z,7.80
2023-01-05T10:12:31.244Z,7.80
2023-01-05T10:15:04.604Z,7.40
2023-01-05T10:17:41.616Z,7.00
2023-01-05T10:20:22.660Z,7.70
2023-01-05T10:23:02.370Z,7.50
2023-01-05T10:25:37.582Z,7.80
2023-01-05T10:28:17.552Z,7.10
2023-01-05T10:30:52.839Z,6.90
2023-01-05T10:33:35.670Z,7.70
2023-01-05T10:36:57.574Z,7.10
2023-01-05T10:39:21.153Z,9.10
2023-01-05T10:41:55.482Z,8.10
2023-01-05T10:44:41.702Z,8.70
2023-01-05T10:47:13.708Z,7.60
2023-01-05T10:49:47.513Z,7.40
2023-01-05T10:52:20.421Z,8.70
2023-01-05T10:54:53.781Z,7.60
2023-01-05T10:57:43.696Z,8.70
2023-01-05T11:00:18.272Z,8.40
2023-01-05T11:02:54.997Z,7.60
2023-01-05T11:05:35.226Z,8.40
2023-01-05T11:08:08.056Z,8.30
2023-01-05T11:10:40.862Z,8.20
2023-01-05T11:13:22.872Z,8.30
2023-01-05T11:15:56.129Z,8.90
2023-01-05T11:18:33.327Z,8.50
2023-01-05T11:21:16.162Z,7.80
2023-01-05T11:23:48.641Z,9.30
2023-01-05T11:26:34.397Z,8.80
2023-01-05T11:29:22.571Z,8.60
2023-01-05T11:31:56.578Z,10.20
2023-01-05T11:34:32.499Z,9.20
2023-01-05T11:37:08.544Z,9.60
2023-01-05T11:39:42.741Z,8.90
2023-01-05T11:42:21.540Z,8.40
2023-01-05T11:44:57.056Z,8.90
2023-01-05T11:47:31.153Z,8.20
2023-01-05T11:50:09.471Z,9.70
2023-01-05T11:52:42.752Z,9.10
2023-01-05T11:55:37.068Z,10.10
2023-01-05T11:58:23.383Z,10.10
2023-01-05T12:01:02.954Z,10.30
2023-01-05T12:03:43.626Z,10.20
2023-01-05T12:06:18.933Z,11.60
2023-01-05T12:08:53.084Z,8.90
2023-01-05T12:11:24.826Z,10.70
2023-01-05T12:16:45.438Z,10.40
2023-01-05T12:19:40.081Z,12.10
2023-01-05T12:22:27.086Z,12.60
2023-01-05T12:25:05.847Z,10.70
2023-01-05T12:27:42.981Z,11.00
2023-01-05T12:32:48.071Z,13.50
2023-01-05T12:36:25.424Z,11.20
2023-01-05T12:39:07.015Z,10.70
2023-01-05T12:41:55.107Z,11.60
2023-01-05T12:44:39.146Z,10.00
2023-01-05T12:47:22.335Z,11.50
2023-01-05T12:49:55.023Z,12.70
2023-01-05T12:52:29.382Z,12.80
2023-01-05T12:55:02.728Z,11.20
2023-01-05T12:57:37.168Z,11.60
2023-01-05T13:00:12.172Z,11.90
2023-01-05T13:02:45.308Z,10.80
2023-01-05T13:05:20.300Z,11.10
2023-01-05T13:07:53.814Z,11.50
2023-01-05T13:10:27.694Z,10.60
2023-01-05T13:13:00.980Z,11.90
2023-01-05T13:15:38.882Z,10.90
2023-01-05T13:18:12.797Z,12.30
2023-01-05T13:20:45.889Z,11.60
2023-01-05T13:23:18.947Z,13.00
2023-01-05T13:25:54.073Z,11.40
2023-01-05T13:28:28.643Z,12.30
2023-01-05T13:31:32.202Z,13.80
2023-01-05T13:34:30.201Z,12.20
2023-01-05T13:37:36.748Z,11.70
2023-01-05T13:40:19.122Z,11.50
2023-01-05T13:46:07.963Z,10.80
2023-01-05T13:49:03.136Z,12.90
2023-01-05T13:51:54.537Z,13.50
2023-01-05T13:54:43.236Z,13.80
2023-01-05T13:57:17.838Z,13.70
2023-01-05T14:00:00.806Z,14.40
2023-01-05T14:02:44.675Z,14.30
2023-01-05T14:05:25.171Z,14.70
2023-01-05T14:07:57.025Z,16.00
2023-01-05T14:10:29.920Z,13.90
2023-01-05T14:13:02.039Z,17.00
2023-01-05T14:15:43.906Z,15.50
2023-01-05T14:20:49.433Z,14.40
2023-01-05T14:24:00.481Z,14.40
2023-01-05T14:27:15.330Z,12.00
2023-01-05T14:30:27.816Z,12.00
2023-01-05T14:33:06.439Z,12.60
2023-01-05T14:35:38.072Z,13.20
2023-01-05T14:38:21.337Z,11.30
2023-01-05T14:40:56.464Z,13.70
2023-01-05T14:43:34.654Z,13.30
2023-01-05T14:46:09.898Z,13.10
2023-01-05T14:48:43.777Z,14.50
2023-01-05T14:51:23.970Z,13.60
2023-01-05T14:53:56.337Z,12.30
2023-01-05T14:56:29.667Z,12.20
2023-01-05T14:59:13.165Z,14.50
2023-01-05T15:01:50.745Z,13.30
2023-01-05T15:04:24.279Z,15.00
2023-01-05T15:07:15.652Z,14.60
2023-01-05T15:10:14.333Z,15.90
2023-01-05T15:12:56.068Z,15.80
2023-01-05T15:15:42.410Z,15.80
2023-01-05T15:18:44.188Z,17.70
2023-01-05T15:21:48.734Z,16.50
2023-01-05T15:24:40.110Z,15.60
2023-01-05T15:27:22.204Z,13.50
2023-01-05T15:30:10.713Z,13.70
2023-01-05T15:32:42.986Z,13.30
2023-01-05T15:35:17.050Z,15.00
2023-01-05T15:37:50.607Z,15.50
2023-01-05T15:40:32.385Z,14.30
2023-01-05T15:43:05.143Z,15.10
2023-01-05T15:45:39.808Z,17.10
2023-01-05T15:48:16.165Z,16.10
2023-01-05T15:50:49.441Z,14.60
2023-01-05T15:53:29.888Z,16.00
2023-01-05T15:56:01.711Z,16.20
2023-01-05T16:01:05.346Z,16.30
2023-01-05T16:03:38.185Z,15.80
2023-01-05T16:06:12.202Z,13.90
2023-01-05T16:08:45.738Z,15.60
2023-01-05T16:11:19.367Z,16.10
2023-01-05T16:13:52.675Z,15.00
2023-01-05T16:16:50.718Z,15.30
2023-01-05T16:19:31.231Z,16.00
2023-01-05T16:22:06.219Z,15.40
2023-01-05T16:24:42.050Z,15.00
2023-01-05T16:27:13.639Z,13.80
2023-01-05T16:29:45.983Z,16.50
2023-01-05T16:32:32.082Z,15.00
2023-01-05T16:35:33.243Z,16.30
2023-01-05T16:38:18.118Z,17.70
2023-01-05T16:41:17.400Z,16.20
2023-01-05T16:43:53.411Z,19.30
2023-01-05T16:46:45.026Z,17.90
2023-01-05T16:49:53.317Z,18.30
2023-01-05T16:52:38.866Z,17.20
2023-01-05T16:55:30.776Z,18.50
2023-01-05T16:58:02.862Z,21.30
2023-01-05T17:00:39.451Z,18.40
2023-01-05T17:03:29.244Z,23.10
2023-01-05T17:06:01.064Z,21.50
2023-01-05T17:08:36.245Z,22.20
2023-01-05T17:11:12.809Z,22.50
2023-01-05T17:13:46.213Z,23.20
2023-01-05T17:16:18.019Z,21.40
2023-01-05T17:18:50.174Z,22.90
2023-01-05T17:21:23.027Z,22.10
2023-01-05T17:23:55.710Z,24.40
2023-01-05T17:26:28.583Z,21.60
2023-01-05T17:31:38.065Z,22.40
2023-01-05T17:34:09.724Z,22.00
2023-01-05T17:39:11.443Z,21.80
2023-01-05T17:41:43.197Z,22.00
2023-01-05T17:44:14.641Z,24.30
2023-01-05T17:46:47.177Z,22.30
2023-01-05T17:49:20.319Z,22.40
2023-01-05T17:51:52.102Z,24.10
2023-01-05T17:54:23.599Z,23.80
2023-01-05T17:56:55.069Z,26.00
2023-01-05T17:59:28.004Z,22.50
2023-01-05T18:01:59.564Z,24.90
2023-01-05T18:09:43.754Z,21.70
2023-01-05T18:12:15.334Z,26.20
2023-01-05T18:14:46.924Z,23.50
2023-01-05T18:17:18.462Z,24.00
2023-01-05T18:19:50.002Z,25.60
2023-01-05T18:22:21.443Z,23.90
2023-01-05T18:24:52.931Z,24.90
2023-01-05T18:27:25.661Z,24.40
2023-01-05T18:29:57.732Z,27.70
2023-01-05T18:35:04.421Z,24.20
2023-01-05T18:37:39.343Z,23.70
2023-01-05T18:42:42.774Z,24.70
2023-01-05T18:45:19.800Z,25.60
2023-01-05T18:48:00.053Z,25.40
2023-01-05T18:50:31.779Z,23.90
2023-01-05T18:55:33.284Z,23.90
2023-01-05T18:58:04.661Z,23.10
2023-01-05T19:00:36.390Z,23.90
2023-01-05T19:03:08.887Z,24.30
2023-01-05T19:05:42.276Z,25.10
2023-01-05T19:08:14.130Z,25.30
2023-01-05T19:10:45.638Z,27.00
2023-01-05T19:13:17.120Z,25.40
2023-01-05T19:15:48.805Z,26.20
2023-01-05T19:20:58.860Z,25.50
2023-01-05T19:23:30.275Z,24.80
2023-01-05T19:26:04.757Z,24.80
2023-01-05T19:28:38.012Z,25.70
2023-01-05T19:31:10.411Z,26.70
2023-01-05T19:33:42.714Z,25.40
2023-01-05T19:36:15.709Z,25.00
2023-01-05T19:38:47.206Z,25.10
2023-01-05T19:41:19.872Z,24.20
2023-01-05T19:43:51.971Z,25.40
2023-01-05T19:46:24.288Z,24.30
2023-01-05T19:48:56.267Z,25.40
2023-01-05T19:51:28.613Z,24.10
2023-01-05T19:54:00.580Z,24.30
2023-01-05T19:56:34.199Z,23.00
2023-01-05T19:59:08.525Z,24.30
2023-01-05T20:01:40.145Z,23.60
2023-01-05T20:06:42.550Z,22.10
2023-01-05T20:09:14.843Z,24.80
2023-01-05T20:11:49.041Z,24.30
2023-01-05T20:14:21.598Z,24.10
2023-01-05T20:16:54.504Z,23.30
2023-01-05T20:19:26.954Z,23.50
2023-01-05T20:21:59.591Z,23.90
2023-01-05T20:24:31.966Z,23.40
2023-01-05T20:27:05.602Z,24.70
2023-01-05T20:29:37.269Z,23.80
2023-01-05T20:34:40.924Z,27.00
2023-01-05T20:37:12.533Z,24.00
2023-01-05T20:39:44.110Z,23.20
2023-01-05T20:42:15.660Z,23.00
2023-01-05T20:44:52.264Z,25.70
2023-01-05T20:47:23.860Z,24.30
2023-01-05T20:49:55.591Z,23.40
2023-01-05T20:54:57.312Z,23.40
2023-01-05T20:57:28.940Z,21.20
2023-01-05T21:00:00.832Z,23.50
2023-01-05T21:02:32.873Z,24.20
2023-01-05T21:05:04.485Z,24.30
2023-01-05T21:07:36.741Z,25.30
2023-01-05T21:10:08.928Z,23.30
2023-01-05T21:12:40.572Z,22.30
2023-01-05T21:17:43.442Z,24.10
2023-01-05T21:20:14.905Z,22.40
2023-01-05T21:22:46.340Z,24.30
2023-01-05T21:25:17.918Z,21.80
2023-01-05T21:27:49.285Z,24.60
2023-01-05T21:30:21.963Z,19.70
2023-01-05T21:32:53.491Z,22.30
2023-01-05T21:35:24.877Z,21.90
2023-01-05T21:37:56.527Z,21.90
2023-01-05T21:40:28.317Z,23.40
2023-01-05T21:43:02.601Z,24.20
2023-01-05T21:45:34.916Z,22.90
2023-01-05T21:48:06.839Z,21.00
2023-01-05T21:50:56.105Z,23.10
2023-01-05T21:53:45.509Z,23.30
2023-01-05T21:56:27.109Z,22.30
2023-01-05T21:58:59.682Z,21.90
2023-01-05T22:01:31.419Z,22.40
2023-01-05T22:04:03.491Z,24.70
2023-01-05T22:06:35.116Z,21.20
2023-01-05T22:09:06.792Z,20.60
2023-01-05T22:14:08.241Z,21.50
2023-01-05T22:16:39.796Z,23.10
2023-01-05T22:21:42.589Z,22.80
2023-01-05T22:24:15.516Z,23.40
2023-01-05T22:26:47.073Z,22.60
2023-01-05T22:29:19.522Z,22.00
2023-01-05T22:31:51.841Z,22.80
2023-01-05T22:34:23.318Z,22.80
2023-01-05T22:36:55.098Z,22.20
2023-01-05T22:39:26.522Z,21.30
2023-01-05T22:41:58.067Z,21.60
2023-01-05T22:44:29.833Z,21.40
2023-01-05T22:49:31.711Z,21.20
2023-01-05T22:52:03.379Z,20.80
2023-01-05T22:54:34.753Z,21.70
2023-01-05T22:57:06.171Z,21.20
2023-01-05T22:59:37.706Z,21.30
2023-01-05T23:02:09.301Z,20.10
2023-01-05T23:04:40.910Z,19.20
2023-01-05T23:09:42.573Z,20.30
2023-01-05T23:12:14.072Z,19.50
2023-01-05T23:14:45.707Z,19.80
2023-01-05T23:17:17.336Z,17.60
2023-01-05T23:22:18.779Z,18.00
2023-01-05T23:24:50.190Z,17.30
2023-01-05T23:27:21.607Z,19.10
2023-01-05T23:29:52.996Z,17.20
2023-01-05T23:32:24.440Z,18.00
2023-01-05T23:34:55.749Z,16.90
2023-01-05T23:37:27.196Z,16.20
2023-01-05T23:39:58.566Z,16.60
2023-01-05T23:42:46.680Z,16.20
2023-01-05T23:45:18.340Z,16.10
2023-01-05T23:50:19.707Z,16.70
2023-01-05T23:55:21.114Z,14.40
